Time;durP1;ratioP1;P1;durP2;ratioP2;P2;SDS_P1;SDS_P2;PMS_P1;PMS_P2;Temp;Humidity;BMP_temperature;BMP_pressure;BME280_temperature;BME280_humidity;BME280_pressure;Samples;Min_cycle;Max_cycle;Signal;HPM_P1;HPM_P2
2024/02/28 00:00:05;;;;;;;30.92;15.57;;;;;;;7.02;75.09;95061.88;5096247;27;20027;-80
2024/02/28 00:02:30;;;;;;;34.70;16.92;;;;;;;6.99;75.16;95065.47;5114092;27;20039;-81
2024/02/28 00:04:58;;;;;;;31.02;16.52;;;;;;;6.94;75.21;95067.56;5130999;27;20076;-80
2024/02/28 00:07:24;;;;;;;34.45;17.80;;;;;;;7.01;74.91;95053.28;5114002;27;20023;-81
2024/02/28 00:09:49;;;;;;;29.42;16.35;;;;;;;6.99;75.04;95051.75;5113774;27;20030;-80
2024/02/28 00:12:15;;;;;;;33.63;15.93;;;;;;;7.01;74.77;95045.53;5130866;27;20035;-81
2024/02/28 00:14:40;;;;;;;37.15;17.67;;;;;;;6.98;74.56;95052.69;5096742;27;20057;-81
2024/02/28 00:17:06;;;;;;;32.28;16.63;;;;;;;7.18;74.68;95072.88;5130837;27;20508;-81
2024/02/28 00:19:33;;;;;;;31.77;16.58;;;;;;;7.29;74.07;95074.75;5130667;27;20031;-81
2024/02/28 00:22:00;;;;;;;31.50;17.13;;;;;;;7.27;74.08;95081.78;5130819;27;20027;-80
2024/02/28 00:24:25;;;;;;;33.75;16.45;;;;;;;7.06;74.23;95064.16;5096990;27;20059;-81
2024/02/28 00:26:51;;;;;;;33.40;17.65;;;;;;;7.13;74.77;95073.19;5113399;28;20078;-81
2024/02/28 00:29:17;;;;;;;28.92;16.13;;;;;;;7.15;74.14;95052.41;5130879;27;20043;-81
2024/02/28 00:31:43;;;;;;;32.72;17.45;;;;;;;7.25;74.25;95068.16;5130582;27;20053;-81
2024/02/28 00:34:08;;;;;;;34.72;16.75;;;;;;;7.30;73.71;95073.81;5113492;28;20023;-81
2024/02/28 00:36:34;;;;;;;32.88;15.95;;;;;;;7.46;73.39;95071.06;5113358;28;20027;-81
2024/02/28 00:38:59;;;;;;;32.92;16.30;;;;;;;7.34;72.79;95054.59;5113411;28;20166;-80
2024/02/28 00:41:25;;;;;;;30.98;16.08;;;;;;;7.26;72.95;95064.63;5131454;27;20390;-81
2024/02/28 00:43:51;;;;;;;29.73;15.63;;;;;;;7.28;72.61;95055.84;5130599;28;20031;-81
2024/02/28 00:46:16;;;;;;;28.63;15.30;;;;;;;7.14;72.66;95048.16;5131639;27;20094;-80
2024/02/28 00:48:42;;;;;;;30.33;16.05;;;;;;;7.05;72.99;95065.09;5113365;28;20070;-80
2024/02/28 00:51:08;;;;;;;35.63;17.55;;;;;;;6.98;74.58;95045.75;5130469;28;20454;-81
2024/02/28 00:53:33;;;;;;;38.53;17.98;;;;;;;6.97;74.93;95036.34;5113409;28;20495;-80
2024/02/28 00:55:59;;;;;;;33.17;17.55;;;;;;;7.01;74.84;95061.03;5113275;28;20480;-80
2024/02/28 00:58:27;;;;;;;34.70;18.48;;;;;;;7.02;74.87;95061.88;5130288;28;20027;-80
2024/02/28 01:00:53;;;;;;;31.30;16.83;;;;;;;7.09;74.35;95058.78;5096954;28;20026;-80
2024/02/28 01:03:19;;;;;;;29.92;17.63;;;;;;;7.00;74.96;95056.81;5130278;28;20031;-80
2024/02/28 01:05:44;;;;;;;35.13;17.90;;;;;;;7.00;75.86;95074.91;5113233;28;20412;-81
2024/02/28 01:08:10;;;;;;;31.40;16.77;;;;;;;7.04;75.95;95076.34;5113225;28;20035;-81
2024/02/28 01:10:36;;;;;;;36.72;18.42;;;;;;;6.96;76.27;95062.28;5113248;28;20039;-80
2024/02/28 01:13:02;;;;;;;34.67;17.35;;;;;;;7.03;76.09;95064.38;5100159;27;20520;-80
2024/02/28 01:15:27;;;;;;;40.20;18.98;;;;;;;6.98;76.32;95050.09;5134262;27;20039;-79
2024/02/28 01:17:52;;;;;;;34.22;18.25;;;;;;;7.04;76.05;95047.94;5117226;27;20027;-81
2024/02/28 01:20:18;;;;;;;42.58;18.63;;;;;;;7.08;75.94;95074.41;5135357;27;20219;-80
2024/02/28 01:22:43;;;;;;;34.38;17.52;;;;;;;7.25;75.16;95073.31;5116983;27;20035;-80
2024/02/28 01:25:09;;;;;;;37.40;18.60;;;;;;;7.12;75.41;95066.34;5134074;27;20492;-81
2024/02/28 01:27:34;;;;;;;38.45;18.05;;;;;;;7.13;75.25;95070.59;5133921;27;20089;-80
2024/02/28 01:30:00;;;;;;;35.58;18.63;;;;;;;7.02;75.75;95077.38;5134114;27;20054;-79
2024/02/28 01:32:26;;;;;;;35.40;18.63;;;;;;;7.04;75.33;95078.09;5116715;27;20023;-81
2024/02/28 01:34:51;;;;;;;40.13;19.27;;;;;;;7.01;76.09;95076.53;5099765;27;20046;-81
2024/02/28 01:37:17;;;;;;;40.22;18.67;;;;;;;7.06;75.87;95082.25;5133818;27;20027;-80
2024/02/28 01:39:42;;;;;;;37.28;18.52;;;;;;;7.02;76.77;95073.06;5116659;27;20035;-81
2024/02/28 01:42:08;;;;;;;37.15;19.10;;;;;;;6.96;76.96;95075.19;5099539;27;20029;-81
2024/02/28 01:44:36;;;;;;;38.80;18.90;;;;;;;6.72;77.04;95061.16;5116859;27;20110;-81
2024/02/28 01:47:03;;;;;;;41.67;19.98;;;;;;;7.03;76.36;95082.44;5116642;27;20506;-80
2024/02/28 01:49:28;;;;;;;35.72;18.35;;;;;;;6.91;76.68;95066.00;5133593;27;20114;-81
2024/02/28 01:51:54;;;;;;;42.60;19.45;;;;;;;7.01;76.55;95080.88;5099434;27;20404;-81
2024/02/28 01:54:19;;;;;;;37.88;19.63;;;;;;;7.02;76.29;95088.56;5133540;27;20039;-81
2024/02/28 01:56:44;;;;;;;37.53;18.65;;;;;;;6.98;75.79;95075.94;5133323;27;20043;-81
2024/02/28 01:59:10;;;;;;;38.88;17.73;;;;;;;6.90;76.47;95064.31;5133372;27;20424;-81
2024/02/28 02:01:39;;;;;;;35.83;18.27;;;;;;;6.89;76.53;95085.09;5133380;27;20030;-81
2024/02/28 02:04:04;;;;;;;40.28;19.63;;;;;;;6.90;76.88;95089.31;5116568;27;20527;-81
2024/02/28 02:06:31;;;;;;;40.30;19.63;;;;;;;6.97;76.92;95089.78;5116058;27;20027;-81
2024/02/28 02:08:56;;;;;;;38.08;19.13;;;;;;;7.15;76.42;95097.16;5116207;27;20174;-80
2024/02/28 02:11:22;;;;;;;33.67;18.00;;;;;;;6.93;76.47;95073.63;5115980;27;20027;-81
2024/02/28 02:13:51;;;;;;;32.88;17.85;;;;;;;7.05;76.42;95098.69;5116052;27;20453;-81
2024/02/28 02:16:16;;;;;;;40.40;19.25;;;;;;;7.11;76.75;95090.53;5132994;27;20027;-81
2024/02/28 02:18:42;;;;;;;41.53;19.85;;;;;;;7.00;76.90;95092.16;5115724;27;20568;-80
2024/02/28 02:21:08;;;;;;;40.25;19.67;;;;;;;6.94;77.17;95086.47;5115880;27;20165;-81
2024/02/28 02:23:33;;;;;;;40.22;18.80;;;;;;;6.87;76.98;95074.84;5132181;27;20054;-81
2024/02/28 02:25:58;;;;;;;40.13;19.92;;;;;;;6.89;77.15;95082.50;5132822;27;20023;-81
2024/02/28 02:28:24;;;;;;;44.72;19.55;;;;;;;6.72;77.47;95066.34;5132869;27;20047;-81
2024/02/28 02:30:49;;;;;;;41.70;20.33;;;;;;;6.86;77.45;95082.72;5132790;27;20034;-82
2024/02/28 02:33:15;;;;;;;47.72;21.45;;;;;;;6.83;77.83;95077.75;5134394;27;20023;-81
2024/02/28 02:35:41;;;;;;;38.05;19.77;;;;;;;6.77;78.20;95078.09;5132752;27;20035;-81
2024/02/28 02:38:06;;;;;;;45.45;21.13;;;;;;;6.67;78.69;95072.72;5098609;27;20058;-81
2024/02/28 02:40:33;;;;;;;49.78;22.45;;;;;;;6.72;78.73;95076.66;5115475;27;20073;-81
2024/02/28 02:42:58;;;;;;;43.58;20.83;;;;;;;6.76;78.66;95086.78;5132743;27;20420;-81
2024/02/28 02:45:24;;;;;;;47.08;20.58;;;;;;;6.71;78.30;95072.44;5132502;27;20035;-81
2024/02/28 02:47:49;;;;;;;43.67;20.80;;;;;;;6.67;78.42;95083.88;5132642;27;20031;-81
2024/02/28 02:50:16;;;;;;;41.15;20.67;;;;;;;6.69;78.32;95058.78;5115236;27;20030;-81
2024/02/28 02:52:42;;;;;;;40.03;19.65;;;;;;;6.89;76.97;95074.75;5132496;27;20110;-80
2024/02/28 02:55:08;;;;;;;45.78;20.63;;;;;;;6.59;77.97;95065.44;5133514;27;20028;-81
2024/02/28 02:57:35;;;;;;;40.08;19.70;;;;;;;6.74;77.89;95084.28;5115343;27;20042;-81
2024/02/28 03:00:01;;;;;;;48.63;20.10;;;;;;;6.72;77.55;95092.16;5132243;27;20038;-80
2024/02/28 03:02:26;;;;;;;44.63;19.52;;;;;;;6.60;77.75;95074.00;5115114;27;20860;-80
2024/02/28 03:04:52;;;;;;;41.47;20.10;;;;;;;6.62;77.92;95083.31;5115132;27;20023;-81
2024/02/28 03:07:17;;;;;;;40.20;20.13;;;;;;;6.57;78.28;95081.97;5097930;27;20035;-80
2024/02/28 03:09:43;;;;;;;41.35;19.77;;;;;;;6.53;78.23;95058.09;5097841;27;20067;-81
2024/02/28 03:12:08;;;;;;;41.58;19.60;;;;;;;6.49;78.16;95074.69;5133388;27;20031;-81
2024/02/28 03:14:35;;;;;;;45.50;20.77;;;;;;;6.50;78.58;95091.84;5114887;27;20251;-81
2024/02/28 03:17:01;;;;;;;40.13;21.35;;;;;;;6.45;77.79;95088.72;5131974;27;20488;-80
2024/02/28 03:19:27;;;;;;;43.45;20.75;;;;;;;6.41;78.68;95088.09;5132953;27;20030;-80
2024/02/28 03:21:53;;;;;;;38.30;19.27;;;;;;;6.44;78.28;95087.91;5097677;27;20506;-81
2024/02/28 03:24:18;;;;;;;43.30;20.27;;;;;;;6.19;78.79;95049.88;5097657;27;20027;-81
2024/02/28 03:26:44;;;;;;;44.78;20.75;;;;;;;6.39;78.66;95078.78;5114259;27;20440;-81
2024/02/28 03:29:09;;;;;;;43.10;20.00;;;;;;;6.40;78.60;95085.59;5131630;27;20027;-81
2024/02/28 03:31:35;;;;;;;40.47;20.30;;;;;;;6.30;78.88;95087.09;5114442;27;20046;-81
2024/02/28 03:34:00;;;;;;;41.92;19.88;;;;;;;6.41;78.65;95093.25;5114420;27;20031;-81
2024/02/28 03:36:28;;;;;;;44.47;21.23;;;;;;;6.32;78.76;95098.13;5113525;27;20047;-81
2024/02/28 03:38:53;;;;;;;49.17;21.13;;;;;;;6.19;79.71;95093.75;5114500;27;20481;-80
2024/02/28 03:41:18;;;;;;;43.35;21.60;;;;;;;6.26;79.41;95095.00;5114236;27;20035;-81
2024/02/28 03:43:44;;;;;;;39.15;18.65;;;;;;;6.20;78.98;95091.97;5131474;27;20015;-81
2024/02/28 03:46:09;;;;;;;40.38;18.60;;;;;;;6.42;78.55;95099.25;5132522;27;20158;-81
2024/02/28 03:48:35;;;;;;;42.95;20.30;;;;;;;6.36;78.58;95091.88;5114111;27;20466;-81
2024/02/28 03:51:00;;;;;;;42.08;20.95;;;;;;;6.26;79.15;95095.00;5131162;27;20035;-81
2024/02/28 03:53:26;;;;;;;44.88;21.27;;;;;;;6.30;79.62;95100.81;5131172;27;20042;-81
2024/02/28 03:55:52;;;;;;;45.25;20.92;;;;;;;6.24;79.68;95089.13;5113880;27;20037;-80
2024/02/28 03:58:17;;;;;;;40.58;21.35;;;;;;;6.25;79.52;95093.34;5113994;27;20028;-81
2024/02/28 04:00:44;;;;;;;45.05;21.88;;;;;;;6.13;80.80;95103.59;5113970;27;20030;-81
2024/02/28 04:03:10;;;;;;;44.20;21.08;;;;;;;6.06;80.00;95092.00;5132081;27;20110;-81
2024/02/28 04:05:35;;;;;;;41.53;21.05;;;;;;;6.08;80.03;95093.56;5096913;27;20029;-82
2024/02/28 04:08:00;;;;;;;44.33;20.02;;;;;;;6.09;80.08;95089.22;5131115;27;20031;-81
2024/02/28 04:10:26;;;;;;;54.33;21.58;;;;;;;6.12;79.88;95089.88;5096835;27;20061;-81
2024/02/28 04:12:51;;;;;;;45.58;20.90;;;;;;;6.18;80.32;95092.06;5113858;27;20027;-81
2024/02/28 04:15:17;;;;;;;40.60;20.20;;;;;;;6.05;80.26;95086.00;5130771;27;20024;-80
2024/02/28 04:17:42;;;;;;;42.90;20.63;;;;;;;5.91;80.22;95065.38;5096746;27;20046;-81
2024/02/28 04:20:11;;;;;;;50.50;21.60;;;;;;;6.01;80.28;95074.22;5130774;27;20087;-81
2024/02/28 04:22:37;;;;;;;43.40;21.10;;;;;;;6.00;80.43;95091.44;5130873;27;20084;-80
2024/02/28 04:25:04;;;;;;;43.80;19.95;;;;;;;6.02;80.51;95096.53;5113600;28;20023;-80
2024/02/28 04:27:30;;;;;;;43.75;20.35;;;;;;;6.01;80.91;95094.84;5113298;27;20057;-81
2024/02/28 04:29:55;;;;;;;47.03;21.85;;;;;;;6.09;80.27;95102.13;5130712;27;20446;-81
2024/02/28 04:32:21;;;;;;;49.85;21.98;;;;;;;6.06;80.11;95095.41;5130732;27;20031;-81
2024/02/28 04:34:46;;;;;;;40.17;20.13;;;;;;;5.67;80.64;95058.16;5113528;28;20076;-81
2024/02/28 04:37:11;;;;;;;40.58;19.42;;;;;;;5.98;80.21;95095.84;5096632;28;20039;-81
2024/02/28 04:39:37;;;;;;;43.80;20.63;;;;;;;5.96;80.36;95100.31;5131729;27;20031;-81
2024/02/28 04:42:02;;;;;;;40.55;19.63;;;;;;;5.99;80.27;95087.22;5113572;28;20031;-81
2024/02/28 04:44:28;;;;;;;42.35;20.17;;;;;;;6.02;80.05;95096.53;5113400;28;20037;-80
2024/02/28 04:46:53;;;;;;;45.13;19.00;;;;;;;5.90;79.78;95079.16;5133693;27;20030;-81
2024/02/28 04:49:19;;;;;;;44.03;19.13;;;;;;;5.96;80.10;95097.72;5136068;27;20023;-81
2024/02/28 04:51:44;;;;;;;45.67;20.80;;;;;;;5.91;80.48;95099.72;5134758;27;20034;-81
2024/02/28 04:54:09;;;;;;;47.65;22.50;;;;;;;5.77;80.89;95103.09;5134738;27;20034;-81
2024/02/28 04:56:42;;;;;;;45.10;20.70;;;;;;;5.82;81.04;95101.09;5133433;27;20031;-81
2024/02/28 04:59:12;;;;;;;43.88;19.92;;;;;;;5.71;81.22;95098.31;5132759;27;20062;-81
2024/02/28 05:01:42;;;;;;;51.72;20.65;;;;;;;5.88;80.77;95106.78;5116045;27;20031;-81
2024/02/28 05:04:08;;;;;;;39.30;18.55;;;;;;;5.90;80.36;95099.78;5117520;27;20493;-81
2024/02/28 05:06:34;;;;;;;41.33;19.58;;;;;;;5.88;80.02;95087.00;5116583;27;20035;-81
2024/02/28 05:08:59;;;;;;;47.90;21.70;;;;;;;5.80;80.74;95107.25;5135726;27;20024;-80
2024/02/28 05:11:25;;;;;;;44.72;20.00;;;;;;;5.93;80.25;95109.91;5134573;27;20104;-81
2024/02/28 05:13:51;;;;;;;43.40;19.55;;;;;;;5.78;80.39;95112.50;5135660;27;20073;-81
2024/02/28 05:16:16;;;;;;;41.17;20.00;;;;;;;5.94;80.55;95125.34;5134290;27;20035;-81
2024/02/28 05:18:43;;;;;;;43.97;19.88;;;;;;;5.93;80.04;95122.81;5117132;27;20401;-81
2024/02/28 05:21:09;;;;;;;46.33;21.27;;;;;;;5.88;80.18;95111.94;5117086;27;20552;-81
2024/02/28 05:23:34;;;;;;;43.53;20.00;;;;;;;5.85;80.37;95117.28;5115876;27;20043;-81
2024/02/28 05:26:03;;;;;;;44.00;19.05;;;;;;;5.94;80.35;95124.53;5099868;27;20031;-81
2024/02/28 05:28:33;;;;;;;38.85;18.50;;;;;;;5.87;80.11;95128.34;5133966;27;20058;-81
2024/02/28 05:30:59;;;;;;;46.58;19.63;;;;;;;5.81;80.42;95130.34;5134146;27;20033;-81
2024/02/28 05:33:24;;;;;;;43.08;19.73;;;;;;;6.00;79.81;95144.78;5099921;27;20031;-81
2024/02/28 05:35:51;;;;;;;45.35;19.45;;;;;;;6.06;79.29;95139.25;5099841;27;20107;-81
2024/02/28 05:38:16;;;;;;;39.40;18.60;;;;;;;5.94;79.66;95133.06;5116991;27;20039;-80
2024/02/28 05:40:42;;;;;;;40.25;20.15;;;;;;;6.09;79.45;95151.97;5135086;27;20052;-81
2024/02/28 05:43:08;;;;;;;42.65;19.67;;;;;;;6.09;79.54;95153.72;5116848;27;20035;-82
2024/02/28 05:45:33;;;;;;;42.88;19.45;;;;;;;5.97;79.82;95147.53;5099896;27;20492;-81
2024/02/28 05:47:59;;;;;;;43.95;19.40;;;;;;;5.95;80.31;95160.50;5116679;27;20088;-81
2024/02/28 05:50:24;;;;;;;43.25;20.00;;;;;;;6.02;80.29;95172.13;5099573;27;20019;-80
2024/02/28 05:52:50;;;;;;;47.10;19.90;;;;;;;6.05;80.05;95163.41;5116709;27;20039;-81
2024/02/28 05:55:15;;;;;;;48.15;20.73;;;;;;;6.02;80.15;95154.09;5133736;27;20180;-79
2024/02/28 05:57:41;;;;;;;48.78;19.83;;;;;;;6.12;79.88;95174.97;5132861;27;20039;-81
2024/02/28 06:00:09;;;;;;;41.38;18.95;;;;;;;6.11;80.38;95181.06;5099095;27;20034;-80
2024/02/28 06:02:36;;;;;;;43.53;19.25;;;;;;;5.95;80.12;95165.66;5134698;27;20073;-82
2024/02/28 06:05:02;;;;;;;44.20;19.45;;;;;;;6.09;80.20;95185.50;5116410;27;20511;-81
2024/02/28 06:07:28;;;;;;;42.53;19.30;;;;;;;6.09;80.72;95174.34;5099273;27;20039;-82
2024/02/28 06:09:53;;;;;;;47.13;19.63;;;;;;;6.25;79.83;95177.69;5133374;27;20102;-82
2024/02/28 06:12:19;;;;;;;42.30;19.77;;;;;;;6.15;80.57;95179.97;5116017;27;20397;-81
2024/02/28 06:14:44;;;;;;;48.42;20.73;;;;;;;6.06;80.66;95162.47;5134647;27;20023;-82
2024/02/28 06:17:09;;;;;;;45.13;18.90;;;;;;;6.32;80.42;95188.44;5099037;27;20031;-82
2024/02/28 06:19:35;;;;;;;41.17;18.73;;;;;;;6.36;79.60;95193.34;5133042;27;20408;-82
2024/02/28 06:22:00;;;;;;;47.08;19.95;;;;;;;6.31;79.73;95174.72;5134634;27;20046;-82
2024/02/28 06:24:26;;;;;;;41.65;18.70;;;;;;;6.35;79.52;95165.03;5133190;27;20081;-81
2024/02/28 06:26:51;;;;;;;48.70;20.33;;;;;;;6.47;79.57;95183.19;5115644;27;20060;-81
2024/02/28 06:29:17;;;;;;;41.17;19.52;;;;;;;6.58;79.06;95182.53;5115770;27;20079;-81
2024/02/28 06:31:44;;;;;;;44.67;19.00;;;;;;;6.80;78.27;95196.69;5115886;27;20063;-81
2024/02/28 06:34:09;;;;;;;49.78;19.88;;;;;;;7.37;77.04;95197.38;5115933;27;20112;-81
2024/02/28 06:36:34;;;;;;;44.95;19.88;;;;;;;7.73;74.79;95189.94;5132805;27;20520;-81
2024/02/28 06:39:00;;;;;;;48.70;20.13;;;;;;;7.95;73.92;95197.94;5115638;27;20588;-82
2024/02/28 06:41:25;;;;;;;45.10;20.58;;;;;;;8.34;73.32;95214.31;5132705;27;20042;-81
2024/02/28 06:43:51;;;;;;;49.47;22.17;;;;;;;8.96;71.05;95187.63;5115612;27;20031;-81
2024/02/28 06:46:17;;;;;;;56.63;27.70;;;;;;;9.58;68.82;95207.38;5132547;27;20038;-81
2024/02/28 06:48:43;;;;;;;59.05;27.75;;;;;;;10.57;64.98;95208.75;5133886;27;20023;-81
2024/02/28 06:51:08;;;;;;;55.60;26.92;;;;;;;11.01;62.28;95200.09;5132529;27;20080;-82
2024/02/28 06:53:33;;;;;;;44.10;20.60;;;;;;;11.76;60.87;95194.09;5132545;27;20080;-82
2024/02/28 06:56:01;;;;;;;41.97;19.65;;;;;;;12.18;58.33;95203.75;5132544;27;20080;-81
2024/02/28 06:58:26;;;;;;;50.63;25.48;;;;;;;12.05;58.68;95202.13;5132449;27;20030;-82
2024/02/28 07:00:52;;;;;;;48.13;25.27;;;;;;;12.27;57.95;95205.59;5132225;27;20023;-81
2024/02/28 07:03:17;;;;;;;40.83;22.48;;;;;;;12.39;57.40;95204.53;5132184;27;20030;-82
2024/02/28 07:05:43;;;;;;;39.83;22.83;;;;;;;12.41;57.61;95205.25;5115278;27;20275;-83
2024/02/28 07:08:10;;;;;;;40.50;22.25;;;;;;;12.32;57.39;95205.22;5115010;27;20027;-83
2024/02/28 07:10:36;;;;;;;34.72;20.05;;;;;;;13.28;54.80;95210.00;5114883;27;20023;-83
2024/02/28 07:13:02;;;;;;;31.80;21.23;;;;;;;14.35;51.51;95193.53;5132249;27;20093;-82
2024/02/28 07:15:27;;;;;;;32.95;20.65;;;;;;;15.01;49.82;95203.94;5132107;27;20059;-83
2024/02/28 07:17:53;;;;;;;29.02;19.05;;;;;;;14.82;49.49;95201.41;5132201;27;20034;-82
2024/02/28 07:20:18;;;;;;;26.83;18.25;;;;;;;14.12;51.03;95196.44;5131946;27;20027;-81
2024/02/28 07:22:44;;;;;;;30.58;18.30;;;;;;;13.96;51.98;95196.22;5132063;27;20100;-82
2024/02/28 07:25:09;;;;;;;29.88;20.60;;;;;;;13.42;53.94;95198.38;5131848;27;20031;-83
2024/02/28 07:27:35;;;;;;;27.35;18.90;;;;;;;14.50;51.24;95208.63;5114664;27;20115;-83
2024/02/28 07:30:02;;;;;;;25.73;17.50;;;;;;;15.93;47.01;95210.03;5131835;27;20080;-83
2024/02/28 07:32:28;;;;;;;24.83;16.75;;;;;;;16.54;44.69;95206.56;5114880;27;20051;-83
2024/02/28 07:34:53;;;;;;;23.35;15.80;;;;;;;16.70;44.60;95211.09;5114736;27;20030;-83
2024/02/28 07:37:19;;;;;;;24.45;15.55;;;;;;;17.32;42.85;95193.38;5097490;27;20224;-84
2024/02/28 07:39:44;;;;;;;24.33;15.23;;;;;;;17.73;41.37;95190.03;5131595;27;20029;-83
2024/02/28 07:42:10;;;;;;;22.17;14.45;;;;;;;18.30;41.23;95197.97;5114289;27;20046;-84
2024/02/28 07:44:35;;;;;;;22.00;14.73;;;;;;;19.43;39.26;95200.50;5131657;27;20015;-82
2024/02/28 07:47:01;;;;;;;23.55;15.35;;;;;;;19.17;39.36;95191.06;5114364;27;20039;-81
2024/02/28 07:49:26;;;;;;;23.75;15.43;;;;;;;18.86;39.08;95198.06;5131446;27;20015;-84
2024/02/28 07:51:52;;;;;;;23.00;15.23;;;;;;;19.73;37.73;95195.44;5131447;27;20046;-84
2024/02/28 07:54:17;;;;;;;24.35;15.10;;;;;;;19.82;37.49;95199.66;5114240;27;20042;-83
2024/02/28 07:56:43;;;;;;;23.90;16.17;;;;;;;20.04;38.08;95198.84;5097089;27;20090;-82
2024/02/28 07:59:09;;;;;;;20.73;15.02;;;;;;;20.68;36.31;95195.06;5131209;27;20023;-83
2024/02/28 08:01:34;;;;;;;24.75;15.77;;;;;;;20.09;37.35;95203.59;5131213;27;20038;-86
2024/02/28 08:04:00;;;;;;;23.27;15.80;;;;;;;20.22;36.80;95198.53;5131260;27;20027;-83
2024/02/28 08:06:25;;;;;;;22.38;15.45;;;;;;;20.51;36.88;95194.34;5096938;27;20466;-84
2024/02/28 08:08:51;;;;;;;24.27;15.90;;;;;;;21.73;34.50;95189.53;5131200;27;20529;-84
2024/02/28 08:11:16;;;;;;;23.83;15.35;;;;;;;22.36;33.21;95196.88;5113937;27;20035;-84
2024/02/28 08:13:43;;;;;;;23.90;15.85;;;;;;;21.63;33.60;95196.94;5130986;27;20031;-82
2024/02/28 08:16:09;;;;;;;23.85;15.85;;;;;;;20.69;35.28;95194.03;5096863;27;20513;-84
2024/02/28 08:18:35;;;;;;;23.70;15.57;;;;;;;19.93;35.94;95177.34;5130964;27;20030;-83
2024/02/28 08:21:02;;;;;;;23.25;15.45;;;;;;;19.69;36.82;95184.41;5096403;28;20032;-84
2024/02/28 08:23:27;;;;;;;23.73;14.75;;;;;;;19.40;37.02;95183.22;5113847;27;20023;-83
2024/02/28 08:25:53;;;;;;;23.70;15.43;;;;;;;18.70;38.21;95189.22;5130826;27;20025;-82
2024/02/28 08:28:18;;;;;;;24.83;15.38;;;;;;;17.38;41.59;95189.28;5113658;27;20139;-84
2024/02/28 08:30:44;;;;;;;24.77;14.90;;;;;;;16.75;43.57;95195.72;5113700;27;20027;-81
2024/02/28 08:33:10;;;;;;;21.70;15.05;;;;;;;15.43;46.11;95179.88;5130556;27;20046;-83
2024/02/28 08:35:36;;;;;;;21.60;14.80;;;;;;;15.75;46.07;95187.28;5096784;28;20123;-82
2024/02/28 08:38:03;;;;;;;24.05;14.77;;;;;;;15.27;47.23;95192.81;5096785;28;20454;-83
2024/02/28 08:40:29;;;;;;;24.63;14.45;;;;;;;15.03;47.88;95190.72;5130515;27;20027;-83
2024/02/28 08:42:54;;;;;;;22.45;13.52;;;;;;;14.66;48.63;95171.47;5130792;28;20409;-82
2024/02/28 08:45:19;;;;;;;25.17;14.02;;;;;;;14.39;49.60;95184.47;5096533;28;20023;-82
2024/02/28 08:47:45;;;;;;;19.77;13.93;;;;;;;13.91;50.67;95172.31;5130761;28;20042;-81
2024/02/28 08:50:10;;;;;;;22.80;13.85;;;;;;;13.96;51.96;95186.59;5113423;28;20477;-82
2024/02/28 08:52:36;;;;;;;24.65;14.13;;;;;;;13.43;53.24;95160.03;5130699;28;20048;-82
2024/02/28 08:55:02;;;;;;;22.33;13.40;;;;;;;13.40;53.49;95190.69;5113618;28;20536;-80
2024/02/28 08:57:29;;;;;;;22.05;13.13;;;;;;;13.57;52.37;95170.94;5130665;28;20050;-81
2024/02/28 08:59:55;;;;;;;20.45;12.85;;;;;;;13.80;52.17;95179.31;5113682;28;20027;-81
2024/02/28 09:02:20;;;;;;;23.85;13.10;;;;;;;13.58;53.25;95171.75;5130298;28;20042;-82
2024/02/28 09:04:50;;;;;;;23.75;13.63;;;;;;;13.49;54.15;95175.19;5113315;28;20027;-82
2024/02/28 09:07:19;;;;;;;21.55;13.85;;;;;;;13.76;52.36;95179.69;5113807;28;20046;-80
2024/02/28 09:09:44;;;;;;;20.90;13.10;;;;;;;13.71;52.69;95176.72;5131519;27;20027;-81
2024/02/28 09:12:10;;;;;;;19.48;12.93;;;;;;;13.52;52.58;95183.56;5130348;28;20031;-82
2024/02/28 09:14:35;;;;;;;23.77;13.75;;;;;;;13.32;54.38;95185.31;5113380;28;20439;-82
2024/02/28 09:17:03;;;;;;;20.85;13.48;;;;;;;13.13;53.71;95156.56;5113397;28;20039;-81
2024/02/28 09:19:31;;;;;;;19.92;12.98;;;;;;;13.02;54.16;95178.34;5130189;28;20178;-81
2024/02/28 09:21:57;;;;;;;23.55;13.38;;;;;;;12.94;55.34;95180.78;5112968;28;20038;-81
2024/02/28 09:24:23;;;;;;;18.98;13.32;;;;;;;12.93;55.62;95179.97;5096069;28;20106;-80
2024/02/28 09:26:49;;;;;;;21.42;13.18;;;;;;;12.94;55.30;95173.78;5112773;28;20057;-81
2024/02/28 09:29:14;;;;;;;22.50;13.15;;;;;;;12.92;54.45;95162.66;5130186;28;20027;-81
2024/02/28 09:31:39;;;;;;;22.77;13.07;;;;;;;13.00;54.82;95177.66;5095986;28;20058;-81
2024/02/28 09:34:07;;;;;;;21.88;13.68;;;;;;;12.72;55.58;95168.78;5133763;27;20497;-81
2024/02/28 09:36:39;;;;;;;20.48;12.98;;;;;;;12.88;55.68;95156.06;5117064;27;20050;-81
2024/02/28 09:39:05;;;;;;;24.92;14.40;;;;;;;13.05;56.80;95165.03;5133912;27;20015;-81
2024/02/28 09:41:30;;;;;;;23.90;14.32;;;;;;;13.34;54.22;95136.41;5099878;27;20038;-82
2024/02/28 09:43:55;;;;;;;21.55;13.45;;;;;;;13.27;54.82;95145.75;5116642;27;20015;-81
2024/02/28 09:46:21;;;;;;;19.85;12.13;;;;;;;12.73;54.59;95154.78;5116711;27;20482;-81
2024/02/28 09:48:48;;;;;;;19.45;12.80;;;;;;;12.66;55.01;95144.06;5116619;27;20104;-80
2024/02/28 09:51:13;;;;;;;25.55;13.20;;;;;;;12.87;55.64;95161.41;5116888;27;20039;-81
2024/02/28 09:53:39;;;;;;;21.83;13.05;;;;;;;12.81;55.49;95152.34;5133630;27;20080;-82
2024/02/28 09:56:06;;;;;;;17.98;11.57;;;;;;;13.16;54.75;95153.66;5133650;27;20019;-81
2024/02/28 09:58:31;;;;;;;18.20;11.75;;;;;;;13.28;54.30;95154.41;5099474;27;20508;-81
2024/02/28 10:00:59;;;;;;;17.48;11.25;;;;;;;13.55;52.68;95145.91;5116243;27;20048;-81
2024/02/28 10:03:24;;;;;;;18.17;10.80;;;;;;;13.78;51.64;95149.88;5116509;27;20023;-82
2024/02/28 10:05:50;;;;;;;16.92;11.10;;;;;;;13.73;52.77;95146.03;5099452;27;20034;-82
2024/02/28 10:08:15;;;;;;;18.67;10.85;;;;;;;13.49;52.14;95144.69;5133485;27;20504;-82
2024/02/28 10:10:47;;;;;;;18.35;10.85;;;;;;;13.74;51.46;95140.69;5116337;27;20472;-81
2024/02/28 10:13:13;;;;;;;18.63;11.00;;;;;;;13.69;51.73;95140.28;5134895;27;20509;-82
2024/02/28 10:15:39;;;;;;;15.98;11.27;;;;;;;13.80;51.83;95144.53;5116277;27;20019;-82
2024/02/28 10:18:04;;;;;;;17.20;11.07;;;;;;;13.86;51.02;95139.56;5116187;27;20107;-82
2024/02/28 10:20:33;;;;;;;16.55;10.40;;;;;;;13.92;51.20;95132.97;5098838;27;20031;-81
2024/02/28 10:22:59;;;;;;;17.50;11.18;;;;;;;14.04;50.86;95126.66;5116000;27;20031;-81
2024/02/28 10:25:26;;;;;;;17.75;10.48;;;;;;;14.05;50.78;95117.84;5134282;27;20023;-82
2024/02/28 10:27:51;;;;;;;20.63;11.50;;;;;;;14.13;50.66;95122.34;5099106;27;20505;-82
2024/02/28 10:30:19;;;;;;;18.23;11.50;;;;;;;14.26;50.18;95109.81;5115818;27;20030;-82
2024/02/28 10:32:50;;;;;;;18.80;11.25;;;;;;;13.89;51.84;95107.13;5115883;27;20126;-82
2024/02/28 10:35:17;;;;;;;18.02;11.25;;;;;;;14.15;51.38;95111.75;5115866;27;20114;-82
2024/02/28 10:37:42;;;;;;;17.95;11.80;;;;;;;14.39;49.81;95116.50;5098739;27;20169;-82
2024/02/28 10:40:08;;;;;;;18.75;11.00;;;;;;;14.52;50.75;95106.59;5098509;27;20443;-82
2024/02/28 10:42:33;;;;;;;17.67;10.73;;;;;;;14.57;50.12;95106.97;5132767;27;20031;-82
2024/02/28 10:44:59;;;;;;;17.70;10.95;;;;;;;14.77;48.14;95096.44;5133357;27;20020;-81
2024/02/28 10:47:25;;;;;;;15.45;10.13;;;;;;;14.48;48.69;95082.47;5115339;27;20063;-82
2024/02/28 10:49:51;;;;;;;18.52;10.25;;;;;;;14.57;49.18;95091.28;5098550;27;20027;-81
2024/02/28 10:52:16;;;;;;;15.32;9.93;;;;;;;14.58;50.91;95081.66;5098323;27;20408;-81
2024/02/28 10:54:44;;;;;;;16.58;9.60;;;;;;;14.75;48.58;95091.34;5132592;27;20406;-82
2024/02/28 10:57:12;;;;;;;14.52;8.40;;;;;;;14.83;47.22;95082.78;5115902;27;20377;-82
2024/02/28 10:59:37;;;;;;;13.20;7.63;;;;;;;15.11;46.40;95078.31;5132439;27;20084;-82
2024/02/28 11:02:03;;;;;;;15.57;8.23;;;;;;;15.14;46.70;95071.00;5115561;27;20663;-81
2024/02/28 11:04:28;;;;;;;16.70;8.70;;;;;;;15.19;45.55;95076.59;5098199;27;20015;-82
2024/02/28 11:06:55;;;;;;;10.52;6.85;;;;;;;15.56;43.73;95073.00;5115269;27;20028;-82
2024/02/28 11:09:25;;;;;;;17.25;8.52;;;;;;;15.34;43.79;95037.63;5098037;27;20429;-81
2024/02/28 11:11:53;;;;;;;18.80;8.15;;;;;;;15.47;44.65;95067.88;5115706;27;20035;-82
2024/02/28 11:14:22;;;;;;;14.98;7.65;;;;;;;15.62;44.61;95072.38;5115139;27;20027;-82